Time;durP1;ratioP1;P1;durP2;ratioP2;P2;SDS_P1;SDS_P2;PMS_P1;PMS_P2;Temp;Humidity;BMP_temperature;BMP_pressure;BME280_temperature;BME280_humidity;BME280_pressure;Samples;Min_cycle;Max_cycle;Signal;HPM_P1;HPM_P2
2023/04/03 00:00:06;;;;;;;0.53;0.53;;;2.70;99.90;2.30;101681.00;;;;4929232;28;108227;-67
2023/04/03 00:02:32;;;;;;;1.70;0.60;;;2.60;99.90;2.30;101682.00;;;;4926024;28;94152;-65
2023/04/03 00:04:58;;;;;;;2.77;0.43;;;2.60;99.90;2.30;101673.00;;;;4930012;28;93636;-66
2023/04/03 00:07:23;;;;;;;1.10;0.77;;;2.60;99.90;2.20;101678.00;;;;4928101;28;111139;-66
2023/04/03 00:09:49;;;;;;;1.53;0.80;;;2.50;99.90;2.10;101677.00;;;;4930298;28;108086;-66
2023/04/03 00:12:15;;;;;;;5.77;0.87;;;2.40;99.90;2.10;101689.00;;;;4929045;28;122702;-64
2023/04/03 00:14:40;;;;;;;0.87;0.50;;;2.40;99.90;2.00;101676.00;;;;4933653;28;93725;-65
2023/04/03 00:17:06;;;;;;;0.50;0.50;;;2.30;99.90;1.90;101687.00;;;;4934770;28;110323;-66
2023/04/03 00:19:32;;;;;;;1.80;0.97;;;2.20;99.90;1.80;101690.00;;;;4933755;28;109290;-64
2023/04/03 00:21:57;;;;;;;1.37;0.80;;;2.20;99.90;1.80;101687.00;;;;4934037;28;123015;-66
2023/04/03 00:24:23;;;;;;;1.40;0.93;;;2.00;99.90;1.70;101682.00;;;;4929528;28;117306;-65
2023/04/03 00:26:49;;;;;;;0.50;0.50;;;2.20;99.90;1.70;101685.00;;;;4917008;28;104705;-65
2023/04/03 00:29:14;;;;;;;1.60;0.97;;;2.00;99.90;1.70;101693.00;;;;4933560;28;93333;-66
2023/04/03 00:31:40;;;;;;;0.30;0.30;;;1.90;99.90;1.60;101695.00;;;;4930870;28;95276;-65
2023/04/03 00:34:06;;;;;;;1.27;0.77;;;2.70;99.90;1.60;101685.00;;;;4933693;28;123114;-65
2023/04/03 00:36:32;;;;;;;1.33;1.20;;;1.90;99.90;1.50;101686.00;;;;4933039;28;109765;-64
2023/04/03 00:38:57;;;;;;;0.50;0.50;;;1.80;99.90;1.50;101689.00;;;;4934029;28;108951;-65
2023/04/03 00:41:23;;;;;;;1.87;0.90;;;1.80;99.90;1.50;101694.00;;;;4929088;28;117908;-66
2023/04/03 00:43:49;;;;;;;0.70;0.63;;;1.90;99.90;1.40;101693.00;;;;4933525;28;122386;-65
2023/04/03 00:46:14;;;;;;;0.60;0.60;;;1.70;99.90;1.30;101695.00;;;;4934278;28;110434;-66
2023/04/03 00:48:48;;;;;;;1.20;1.07;;;1.70;99.90;1.30;101695.00;;;;4935188;28;96045;-65
2023/04/03 00:51:20;;;;;;;0.53;0.43;;;1.60;99.90;1.30;101698.00;;;;4932166;28;114994;-65
2023/04/03 00:53:54;;;;;;;2.00;0.60;;;1.60;99.90;1.20;101693.00;;;;4915984;28;94229;-66
2023/04/03 00:56:23;;;;;;;1.30;0.90;;;1.60;99.90;1.20;101701.00;;;;4918456;28;93044;-67
2023/04/03 00:59:01;;;;;;;2.10;1.07;;;1.50;99.90;1.20;101687.00;;;;4947468;28;101740;-66
2023/04/03 01:01:28;;;;;;;1.20;0.57;;;1.50;99.90;1.10;101703.00;;;;4931959;28;93319;-67
2023/04/03 01:04:02;;;;;;;0.53;0.53;;;1.50;99.90;1.10;101689.00;;;;4917946;28;93238;-65
2023/04/03 01:06:33;;;;;;;2.63;0.70;;;1.30;99.90;1.10;101699.00;;;;4931826;28;92909;-65
2023/04/03 01:09:00;;;;;;;1.33;0.80;;;1.40;99.90;1.00;101698.00;;;;4932713;28;92119;-66
2023/04/03 01:11:26;;;;;;;2.13;1.13;;;1.30;99.90;0.90;101701.00;;;;4915583;28;93874;-65
2023/04/03 01:13:52;;;;;;;0.63;0.63;;;1.20;99.90;0.90;101705.00;;;;4931568;28;94316;-65
2023/04/03 01:16:18;;;;;;;1.00;1.00;;;1.20;99.90;0.80;101698.00;;;;4931027;28;102054;-65
2023/04/03 01:18:45;;;;;;;2.27;1.27;;;1.20;99.90;0.80;101711.00;;;;4934249;28;93129;-65
2023/04/03 01:21:55;;;;;;;4.27;1.17;;;1.10;99.90;0.70;101704.00;;;;4917465;28;94686;-66
2023/04/03 01:24:35;;;;;;;3.13;0.90;;;1.00;99.90;0.70;101700.00;;;;4916056;28;92932;-65
2023/04/03 01:27:03;;;;;;;1.40;1.00;;;1.00;99.90;0.60;101716.00;;;;4944596;28;92923;-64
2023/04/03 01:29:28;;;;;;;8.63;1.00;;;0.90;99.90;0.60;101699.00;;;;4945465;28;92878;-64
2023/04/03 01:31:57;;;;;;;3.43;0.97;;;1.00;99.90;0.50;101702.00;;;;4928244;28;122425;-66
2023/04/03 01:34:24;;;;;;;1.40;1.27;;;0.80;99.90;0.40;101714.00;;;;4935154;28;93269;-65
2023/04/03 01:36:50;;;;;;;0.93;0.93;;;0.90;99.90;0.40;101714.00;;;;4933105;28;92779;-64
2023/04/03 01:39:16;;;;;;;6.13;1.13;;;0.80;99.90;0.40;101720.00;;;;4937052;28;93272;-64
2023/04/03 01:41:42;;;;;;;1.60;0.83;;;0.70;99.90;0.30;101723.00;;;;4933184;28;115927;-66
2023/04/03 01:44:08;;;;;;;3.40;1.03;;;0.60;99.90;0.20;101731.00;;;;4930768;28;123605;-65
2023/04/03 01:46:34;;;;;;;1.67;0.80;;;0.70;99.90;0.20;101737.00;;;;4932257;28;112247;-67
2023/04/03 01:48:59;;;;;;;0.93;0.83;;;0.60;99.90;0.20;101733.00;;;;4942863;28;93136;-65
2023/04/03 01:51:25;;;;;;;1.77;1.17;;;0.50;99.90;0.10;101726.00;;;;4931460;28;114523;-65
2023/04/03 01:53:51;;;;;;;1.40;0.70;;;0.40;99.90;0.00;101740.00;;;;4931561;28;123845;-67
2023/04/03 01:56:17;;;;;;;1.97;0.80;;;0.30;99.90;0.00;101736.00;;;;4931610;28;93062;-65
2023/04/03 01:58:43;;;;;;;2.77;0.87;;;0.50;99.90;-0.10;101734.00;;;;4930747;28;92271;-66
2023/04/03 02:01:08;;;;;;;1.23;0.50;;;0.40;99.90;-0.10;101742.00;;;;4930821;28;121977;-65
2023/04/03 02:03:34;;;;;;;0.87;0.57;;;0.40;99.90;-0.10;101739.00;;;;4926864;28;114519;-65
2023/04/03 02:06:00;;;;;;;0.50;0.50;;;0.20;99.90;-0.20;101739.00;;;;4933107;28;93889;-65
2023/04/03 02:08:25;;;;;;;1.07;0.50;;;0.20;99.90;-0.20;101737.00;;;;4930227;28;104226;-65
2023/04/03 02:10:51;;;;;;;2.40;0.97;;;0.20;99.90;-0.30;101738.00;;;;4924021;28;122208;-66
2023/04/03 02:13:17;;;;;;;10.63;1.20;;;0.00;99.90;-0.30;101736.00;;;;4923795;28;93984;-65
2023/04/03 02:15:43;;;;;;;1.57;1.10;;;0.10;99.90;-0.40;101749.00;;;;4930428;28;92853;-66
2023/04/03 02:18:09;;;;;;;2.43;0.90;;;0.00;99.90;-0.40;101756.00;;;;4927998;28;93153;-66
2023/04/03 02:20:35;;;;;;;1.70;0.90;;;0.00;99.90;-0.50;101741.00;;;;4926256;28;93353;-66
2023/04/03 02:23:01;;;;;;;1.67;1.10;;;-0.20;99.90;-0.50;101759.00;;;;4927881;28;116948;-66
2023/04/03 02:25:27;;;;;;;0.80;0.80;;;-0.20;99.90;-0.60;101758.00;;;;4927333;28;110770;-64
2023/04/03 02:27:53;;;;;;;1.20;0.57;;;-0.20;99.90;-0.60;101751.00;;;;4932670;28;93006;-65
2023/04/03 02:30:18;;;;;;;4.07;1.27;;;-0.20;99.90;-0.70;101753.00;;;;4925555;28;123553;-66
2023/04/03 02:32:44;;;;;;;1.87;1.07;;;-0.20;99.90;-0.70;101759.00;;;;4927113;28;112773;-65
2023/04/03 02:35:11;;;;;;;0.50;0.50;;;-0.30;99.90;-0.70;101761.00;;;;4945988;28;93329;-64
2023/04/03 02:37:36;;;;;;;3.83;1.23;;;-0.40;99.90;-0.80;101765.00;;;;4928582;28;93093;-64
2023/04/03 02:40:03;;;;;;;1.33;0.97;;;-0.40;99.90;-0.80;101761.00;;;;4927301;28;112119;-65
2023/04/03 02:42:29;;;;;;;1.10;0.67;;;-0.40;99.90;-0.90;101765.00;;;;4928924;28;116817;-65
2023/04/03 02:44:55;;;;;;;1.60;1.00;;;-0.40;99.90;-0.90;101767.00;;;;4930806;28;93010;-65
2023/04/03 02:47:20;;;;;;;1.90;0.77;;;-0.50;99.90;-0.90;101764.00;;;;4931392;28;91906;-64
2023/04/03 02:49:46;;;;;;;2.77;0.80;;;-0.40;99.90;-1.00;101773.00;;;;4931631;28;123198;-65
2023/04/03 02:52:13;;;;;;;3.60;1.37;;;-0.40;99.90;-1.00;101762.00;;;;4930089;28;121955;-65
2023/04/03 02:54:39;;;;;;;1.37;0.83;;;-0.50;99.90;-1.00;101764.00;;;;4915519;28;97564;-66
2023/04/03 02:57:08;;;;;;;2.93;1.20;;;0.40;99.90;-1.00;101769.00;;;;4931649;28;108912;-64
2023/04/03 02:59:35;;;;;;;2.57;1.27;;;-0.60;99.90;-1.00;101764.00;;;;4933279;28;93789;-66
2023/04/03 03:02:01;;;;;;;1.93;1.03;;;-0.70;99.90;-1.00;101778.00;;;;4932921;28;109084;-65
2023/04/03 03:04:26;;;;;;;3.13;1.07;;;-0.70;99.90;-1.10;101768.00;;;;4928741;28;109553;-64
2023/04/03 03:06:52;;;;;;;6.70;1.63;;;-0.60;99.90;-1.10;101782.00;;;;4927102;28;109220;-65
2023/04/03 03:09:18;;;;;;;1.90;0.87;;;-0.60;99.90;-1.10;101773.00;;;;4930724;28;121995;-65
2023/04/03 03:11:44;;;;;;;0.63;0.63;;;-0.80;99.90;-1.20;101785.00;;;;4932708;28;121627;-65
2023/04/03 03:14:10;;;;;;;1.17;1.03;;;-0.70;99.90;-1.20;101773.00;;;;4929330;28;111074;-65
2023/04/03 03:16:35;;;;;;;0.53;0.53;;;-0.10;99.90;-1.20;101777.00;;;;4928809;28;107452;-64
2023/04/03 03:19:01;;;;;;;1.70;0.70;;;-0.80;99.90;-1.30;101788.00;;;;4927404;28;106608;-65
2023/04/03 03:21:27;;;;;;;2.80;0.90;;;-0.90;99.90;-1.30;101785.00;;;;4929119;28;123794;-65
2023/04/03 03:23:53;;;;;;;8.17;1.30;;;-0.90;99.90;-1.30;101783.00;;;;4928257;28;111023;-64
2023/04/03 03:26:19;;;;;;;2.57;1.10;;;-0.90;99.90;-1.40;101786.00;;;;4930642;28;104246;-64
2023/04/03 03:28:45;;;;;;;1.73;0.90;;;-0.90;99.90;-1.40;101781.00;;;;4928496;28;93957;-65
2023/04/03 03:31:20;;;;;;;2.47;1.17;;;-1.00;99.90;-1.40;101787.00;;;;4929493;28;92901;-64
2023/04/03 03:33:46;;;;;;;3.73;0.90;;;-0.90;99.90;-1.40;101787.00;;;;4930440;28;92779;-64
2023/04/03 03:36:12;;;;;;;0.93;0.80;;;-0.90;99.90;-1.50;101782.00;;;;4931432;28;108393;-65
2023/04/03 03:38:37;;;;;;;2.20;0.73;;;-1.10;99.90;-1.50;101782.00;;;;4925776;28;122723;-64
2023/04/03 03:41:03;;;;;;;6.00;1.10;;;-1.10;99.90;-1.50;101790.00;;;;4930268;28;119912;-65
2023/04/03 03:43:29;;;;;;;0.97;0.73;;;-1.10;99.90;-1.50;101781.00;;;;4930606;28;95192;-64
2023/04/03 03:45:55;;;;;;;1.20;1.00;;;-1.10;99.90;-1.50;101791.00;;;;4929711;28;107606;-64
2023/04/03 03:48:21;;;;;;;3.43;0.93;;;-1.10;99.90;-1.60;101796.00;;;;4926874;28;93969;-64
2023/04/03 03:50:48;;;;;;;1.03;0.93;;;-1.20;99.90;-1.60;101792.00;;;;4933083;28;111136;-64
2023/04/03 03:53:13;;;;;;;0.87;0.83;;;-1.10;99.90;-1.60;101784.00;;;;4931458;28;93163;-65
2023/04/03 03:55:39;;;;;;;7.83;1.47;;;-1.10;99.90;-1.60;101788.00;;;;4934177;28;108230;-63
2023/04/03 03:58:05;;;;;;;0.80;0.70;;;-1.10;99.90;-1.60;101785.00;;;;4933548;28;94143;-63
2023/04/03 04:00:30;;;;;;;2.43;0.83;;;-1.10;99.90;-1.60;101787.00;;;;4934416;28;121576;-64
2023/04/03 04:02:56;;;;;;;1.80;0.97;;;-1.20;99.90;-1.60;101791.00;;;;4931840;28;102665;-65
2023/04/03 04:05:22;;;;;;;2.63;0.97;;;-1.20;99.90;-1.60;101781.00;;;;4933502;28;106769;-63
2023/04/03 04:07:48;;;;;;;1.43;0.80;;;-1.20;99.90;-1.60;101789.00;;;;4927667;28;124363;-63
2023/04/03 04:10:14;;;;;;;1.33;0.87;;;-1.20;99.90;-1.60;101790.00;;;;4934892;28;93855;-63
2023/04/03 04:12:39;;;;;;;0.73;0.67;;;-0.90;99.90;-1.60;101785.00;;;;4931704;28;93049;-65
2023/04/03 04:15:06;;;;;;;3.53;1.07;;;-1.30;99.90;-1.60;101791.00;;;;4929970;28;107661;-65
2023/04/03 04:17:31;;;;;;;2.87;1.10;;;-1.10;99.90;-1.70;101788.00;;;;4936227;28;111866;-64
2023/04/03 04:19:57;;;;;;;0.70;0.70;;;-1.20;99.90;-1.70;101796.00;;;;4933256;28;121854;-64
2023/04/03 04:22:23;;;;;;;0.63;0.63;;;-1.20;99.90;-1.70;101797.00;;;;4931643;28;92880;-64
2023/04/03 04:24:48;;;;;;;1.23;0.80;;;-1.20;99.90;-1.70;101789.00;;;;4934333;28;108816;-64
2023/04/03 04:27:15;;;;;;;6.80;1.27;;;-1.30;99.90;-1.70;101795.00;;;;4933405;28;122657;-64
2023/04/03 04:29:41;;;;;;;3.73;1.13;;;-1.30;99.90;-1.70;101797.00;;;;4931659;28;93729;-62
2023/04/03 04:32:07;;;;;;;2.10;0.90;;;-1.30;99.90;-1.70;101797.00;;;;4932487;28;111145;-63
2023/04/03 04:34:33;;;;;;;1.10;0.80;;;-1.30;99.90;-1.70;101795.00;;;;4933362;28;93774;-64
2023/04/03 04:36:58;;;;;;;0.93;0.80;;;-1.30;99.90;-1.70;101805.00;;;;4932394;28;122773;-63
2023/04/03 04:39:24;;;;;;;1.37;1.00;;;-1.30;99.90;-1.70;101813.00;;;;4931503;28;124076;-63
2023/04/03 04:41:50;;;;;;;5.03;1.57;;;-1.20;99.90;-1.60;101804.00;;;;4932700;28;109972;-64
2023/04/03 04:44:15;;;;;;;2.33;0.90;;;-1.20;99.90;-1.60;101801.00;;;;4932856;28;93104;-62
2023/04/03 04:46:41;;;;;;;3.50;1.33;;;-1.20;99.90;-1.60;101795.00;;;;4930479;28;123215;-63
2023/04/03 04:49:07;;;;;;;6.70;0.77;;;-1.20;99.90;-1.60;101799.00;;;;4930884;28;121488;-65
2023/04/03 04:51:32;;;;;;;7.27;1.43;;;-1.10;99.90;-1.60;101807.00;;;;4934762;28;109656;-62
2023/04/03 04:53:58;;;;;;;3.23;1.13;;;-1.20;99.90;-1.60;101812.00;;;;4934289;28;109070;-62
2023/04/03 04:56:25;;;;;;;3.80;1.13;;;-1.20;99.90;-1.50;101807.00;;;;4929804;28;124277;-60
2023/04/03 04:58:50;;;;;;;1.70;1.10;;;-1.10;99.90;-1.50;101809.00;;;;4932735;28;94571;-65
2023/04/03 05:01:16;;;;;;;4.03;1.43;;;-1.10;99.90;-1.40;101812.00;;;;4930609;28;109915;-64
2023/04/03 05:03:42;;;;;;;1.77;1.07;;;-1.00;99.90;-1.30;101825.00;;;;4930116;28;110075;-64
2023/04/03 05:06:07;;;;;;;4.07;0.93;;;-1.10;99.90;-1.30;101824.00;;;;4926176;28;93764;-63
2023/04/03 05:08:33;;;;;;;1.10;0.93;;;-0.90;99.90;-1.20;101828.00;;;;4927819;28;122800;-63
2023/04/03 05:10:59;;;;;;;3.10;1.50;;;-0.70;99.90;-1.10;101831.00;;;;4929236;28;111020;-63
2023/04/03 05:13:25;;;;;;;4.83;1.10;;;-0.70;99.90;-1.00;101825.00;;;;4929497;28;92381;-63
2023/04/03 05:15:50;;;;;;;1.47;1.37;;;-0.70;99.90;-0.90;101831.00;;;;4931964;28;111660;-64
2023/04/03 05:18:16;;;;;;;1.47;0.93;;;-0.50;99.90;-0.80;101834.00;;;;4928534;28;122821;-62
2023/04/03 05:20:43;;;;;;;3.27;1.17;;;-0.60;99.90;-0.70;101833.00;;;;4926703;28;93915;-63
2023/04/03 05:23:10;;;;;;;1.40;1.23;;;-0.30;99.90;-0.60;101835.00;;;;4928385;28;92896;-63
2023/04/03 05:25:38;;;;;;;2.33;1.40;;;-0.50;99.90;-0.50;101838.00;;;;4928726;28;93143;-64
2023/04/03 05:28:04;;;;;;;1.53;0.90;;;-0.10;99.90;-0.40;101842.00;;;;4924252;28;113480;-62
2023/04/03 05:30:30;;;;;;;3.70;1.00;;;-0.10;99.90;-0.30;101834.00;;;;4929754;28;93228;-64
2023/04/03 05:32:55;;;;;;;2.70;1.23;;;0.00;99.90;-0.20;101834.00;;;;4927279;28;101093;-63
2023/04/03 05:35:21;;;;;;;4.47;1.40;;;0.10;99.90;-0.10;101846.00;;;;4927581;28;122622;-63
2023/04/03 05:37:47;;;;;;;3.17;1.20;;;0.20;99.90;0.00;101849.00;;;;4927934;28;111547;-64
2023/04/03 05:40:12;;;;;;;1.90;1.00;;;0.30;99.90;0.10;101845.00;;;;4928964;28;93194;-63
2023/04/03 05:42:38;;;;;;;4.33;1.27;;;0.40;99.90;0.20;101852.00;;;;4926335;28;93115;-63
2023/04/03 05:45:04;;;;;;;3.27;1.53;;;0.50;99.90;0.30;101856.00;;;;4927519;28;124288;-64
2023/04/03 05:47:30;;;;;;;3.70;1.23;;;0.60;99.90;0.40;101845.00;;;;4928384;28;94479;-64
2023/04/03 05:49:56;;;;;;;2.30;1.37;;;0.70;99.90;0.60;101848.00;;;;4928895;28;93030;-64
2023/04/03 05:52:36;;;;;;;2.07;0.80;;;0.90;99.90;0.70;101859.00;;;;4926522;28;99584;-65
2023/04/03 05:55:02;;;;;;;2.50;1.30;;;0.40;99.90;0.80;101855.00;;;;4928468;28;94062;-63
2023/04/03 05:57:28;;;;;;;1.60;1.07;;;1.10;99.90;1.00;101858.00;;;;4928410;28;107796;-64
2023/04/03 05:59:54;;;;;;;3.90;1.50;;;1.20;99.90;1.10;101857.00;;;;4929889;28;110274;-64
2023/04/03 06:02:22;;;;;;;0.97;0.70;;;1.40;99.90;1.30;101861.00;;;;4930504;28;92604;-66
2023/04/03 06:04:47;;;;;;;0.80;0.80;;;1.50;99.90;1.50;101857.00;;;;4926680;28;93767;-65
2023/04/03 06:07:17;;;;;;;1.70;0.83;;;1.60;99.90;1.70;101858.00;;;;4929946;28;93578;-64
2023/04/03 06:09:43;;;;;;;1.30;1.00;;;1.90;99.90;1.80;101862.00;;;;4928761;28;93858;-65
2023/04/03 06:12:10;;;;;;;2.57;1.30;;;1.90;99.90;2.00;101876.00;;;;4927022;28;93486;-65
2023/04/03 06:14:36;;;;;;;0.80;0.80;;;2.10;99.90;2.10;101865.00;;;;4927843;28;94171;-66
2023/04/03 06:17:01;;;;;;;1.77;0.80;;;2.40;99.90;2.30;101881.00;;;;4926475;28;123086;-66
2023/04/03 06:19:28;;;;;;;0.50;0.50;;;2.40;99.90;2.40;101877.00;;;;4928875;28;93240;-65
2023/04/03 06:21:54;;;;;;;6.23;1.27;;;2.60;99.90;2.50;101876.00;;;;4925677;28;92865;-64
2023/04/03 06:24:22;;;;;;;0.77;0.60;;;2.70;99.90;2.70;101858.00;;;;4920380;28;94220;-65
2023/04/03 06:26:49;;;;;;;1.23;1.03;;;2.80;99.90;2.80;101874.00;;;;4928455;28;93324;-64
2023/04/03 06:29:15;;;;;;;1.80;0.80;;;3.10;99.90;3.00;101884.00;;;;4928356;28;93284;-65
2023/04/03 06:31:41;;;;;;;1.37;1.07;;;3.20;99.90;3.10;101882.00;;;;4926029;28;111035;-65
2023/04/03 06:34:07;;;;;;;2.40;2.03;;;3.20;99.90;3.20;101881.00;;;;4927831;28;124793;-65
2023/04/03 06:36:33;;;;;;;7.70;2.73;;;3.40;99.90;3.40;101881.00;;;;4927576;28;94023;-64
2023/04/03 06:38:58;;;;;;;3.80;2.13;;;3.60;99.90;3.50;101887.00;;;;4926445;28;111913;-64
2023/04/03 06:41:25;;;;;;;4.10;2.33;;;3.40;99.90;3.60;101885.00;;;;4925225;28;108290;-64
2023/04/03 06:43:51;;;;;;;3.73;1.73;;;3.80;99.90;3.80;101887.00;;;;4927704;28;93885;-65
2023/04/03 06:46:19;;;;;;;0.67;0.63;;;4.10;99.90;4.00;101895.00;;;;4926853;28;122746;-64
2023/04/03 06:48:46;;;;;;;1.70;1.17;;;4.20;99.90;4.30;101895.00;;;;4926945;28;93345;-64
2023/04/03 06:51:25;;;;;;;4.47;1.53;;;4.30;99.90;4.50;101889.00;;;;4926847;28;92460;-63
2023/04/03 06:53:53;;;;;;;1.87;1.33;;;4.60;99.90;4.70;101892.00;;;;4941421;28;93588;-65
2023/04/03 06:56:20;;;;;;;2.10;0.60;;;4.80;99.90;4.80;101905.00;;;;4925792;28;111339;-64
2023/04/03 06:58:46;;;;;;;1.43;0.90;;;5.00;99.90;4.90;101901.00;;;;4928801;28;93818;-64
2023/04/03 07:01:14;;;;;;;2.97;1.20;;;5.60;99.90;5.00;101898.00;;;;4927073;28;92988;-64
2023/04/03 07:03:40;;;;;;;1.47;0.83;;;5.20;99.90;5.10;101915.00;;;;4927684;28;93688;-64
2023/04/03 07:06:09;;;;;;;0.97;0.87;;;5.30;99.90;5.20;101911.00;;;;4929508;28;93658;-64
2023/04/03 07:08:35;;;;;;;0.90;0.77;;;5.40;99.90;5.30;101909.00;;;;4911619;28;93272;-64
2023/04/03 07:11:01;;;;;;;0.93;0.50;;;5.50;99.40;5.40;101913.00;;;;4928174;28;92954;-65
2023/04/03 07:13:27;;;;;;;0.77;0.50;;;5.50;98.40;5.50;101913.00;;;;4925362;28;94523;-65
2023/04/03 07:15:53;;;;;;;1.40;0.90;;;5.60;98.10;5.60;101928.00;;;;4927631;28;93721;-63
2023/04/03 07:18:19;;;;;;;2.43;0.90;;;5.80;97.70;5.90;101927.00;;;;4929578;28;93183;-65
2023/04/03 07:20:45;;;;;;;4.20;0.83;;;6.60;95.90;6.00;101919.00;;;;4928536;28;93955;-64
2023/04/03 07:23:11;;;;;;;1.87;1.20;;;7.00;96.20;6.10;101926.00;;;;4926906;28;95106;-65
2023/04/03 07:25:42;;;;;;;0.70;0.40;;;6.70;96.20;6.20;101923.00;;;;4926153;28;103569;-66
2023/04/03 07:28:08;;;;;;;2.70;1.20;;;6.60;95.70;6.30;101926.00;;;;4922291;28;93320;-65
2023/04/03 07:30:34;;;;;;;2.10;1.00;;;6.50;95.10;6.40;101928.00;;;;4926470;28;93204;-66
2023/04/03 07:33:00;;;;;;;2.17;0.93;;;6.60;94.80;6.50;101925.00;;;;4926017;28;93024;-66
2023/04/03 07:35:26;;;;;;;1.13;0.60;;;7.30;94.40;6.60;101930.00;;;;4926593;28;93443;-66
2023/04/03 07:37:53;;;;;;;2.73;0.97;;;6.80;93.60;6.70;101931.00;;;;4928943;28;93014;-66
2023/04/03 07:40:18;;;;;;;1.37;0.70;;;7.60;93.10;6.70;101931.00;;;;4927969;28;92217;-65
2023/04/03 07:42:44;;;;;;;0.70;0.50;;;6.90;92.70;6.70;101943.00;;;;4928567;28;94253;-65
2023/04/03 07:45:10;;;;;;;1.37;0.93;;;7.30;91.60;6.60;101928.00;;;;4928962;28;93838;-65
2023/04/03 07:47:36;;;;;;;2.60;0.93;;;6.80;90.60;6.50;101921.00;;;;4925496;28;103223;-66
2023/04/03 07:50:02;;;;;;;0.37;0.37;;;6.60;89.80;6.50;101925.00;;;;4927313;28;92837;-64
2023/04/03 07:52:27;;;;;;;3.23;1.03;;;6.80;90.60;6.60;101927.00;;;;4926021;28;103589;-64
2023/04/03 07:54:53;;;;;;;0.70;0.70;;;6.70;91.00;6.80;101937.00;;;;4927260;28;121786;-66
2023/04/03 07:57:19;;;;;;;3.00;0.90;;;7.50;91.40;7.00;101932.00;;;;4926384;28;110814;-64
2023/04/03 07:59:45;;;;;;;1.17;0.60;;;7.80;91.50;7.10;101932.00;;;;4927850;28;92934;-65
2023/04/03 08:02:11;;;;;;;1.20;0.93;;;7.70;90.90;7.30;101945.00;;;;4927266;28;101020;-64
2023/04/03 08:04:37;;;;;;;0.87;0.50;;;7.50;86.20;7.10;101939.00;;;;4927466;28;94051;-66
2023/04/03 08:07:02;;;;;;;1.33;0.77;;;7.30;85.60;7.10;101939.00;;;;4927350;28;109629;-64
2023/04/03 08:09:28;;;;;;;0.77;0.47;;;7.30;87.30;7.40;101937.00;;;;4925698;28;100559;-65
2023/04/03 08:11:54;;;;;;;0.37;0.33;;;8.10;89.50;7.80;101944.00;;;;4925073;28;123188;-64
2023/04/03 08:14:20;;;;;;;0.60;0.50;;;7.80;89.70;8.20;101944.00;;;;4923378;28;94545;-63
2023/04/03 08:16:48;;;;;;;0.53;0.47;;;8.10;86.80;8.30;101942.00;;;;4925364;28;92988;-65
2023/04/03 08:19:16;;;;;;;2.90;0.70;;;8.30;83.70;8.40;101945.00;;;;4925874;28;94017;-65
2023/04/03 08:21:41;;;;;;;1.80;0.77;;;8.40;83.70;8.60;101950.00;;;;4923529;28;95904;-66
2023/04/03 08:24:08;;;;;;;1.73;0.43;;;8.60;84.70;9.00;101941.00;;;;4913403;28;123535;-66
2023/04/03 08:26:35;;;;;;;0.50;0.33;;;8.90;84.80;9.30;101952.00;;;;4927043;28;92957;-66
2023/04/03 08:29:00;;;;;;;0.67;0.43;;;9.30;83.40;9.70;101944.00;;;;4927546;28;92317;-65
2023/04/03 08:31:27;;;;;;;0.73;0.67;;;9.60;82.70;10.00;101942.00;;;;4924098;28;110785;-64
2023/04/03 08:33:53;;;;;;;1.13;0.73;;;10.00;81.40;10.30;101946.00;;;;4923524;28;93762;-66
2023/04/03 08:36:25;;;;;;;2.23;1.13;;;10.20;80.50;10.70;101967.00;;;;4927203;28;109574;-65
2023/04/03 08:38:53;;;;;;;3.23;1.10;;;10.60;78.00;10.80;101966.00;;;;4913648;28;93198;-65
2023/04/03 08:41:43;;;;;;;1.27;0.87;;;10.80;74.60;10.80;101968.00;;;;4930012;28;114108;-65
2023/04/03 08:44:22;;;;;;;3.33;0.40;;;10.90;74.20;10.80;101964.00;;;;4929693;28;93382;-65
2023/04/03 08:47:11;;;;;;;0.87;0.77;;;10.90;72.30;10.60;101962.00;;;;4929223;28;92861;-65
2023/04/03 08:49:48;;;;;;;1.60;0.90;;;10.90;72.30;10.40;101961.00;;;;4912778;28;100155;-65
2023/04/03 08:52:36;;;;;;;4.57;0.90;;;10.60;71.10;10.30;101959.00;;;;4910163;28;93211;-66
2023/04/03 08:55:10;;;;;;;0.40;0.40;;;10.40;71.60;10.30;101962.00;;;;4929969;28;92947;-64
2023/04/03 08:57:42;;;;;;;0.60;0.50;;;10.50;68.00;10.30;101966.00;;;;4911972;28;92887;-64
2023/04/03 09:00:24;;;;;;;4.07;0.93;;;10.40;66.00;10.00;101962.00;;;;4912617;28;93205;-64
2023/04/03 09:02:53;;;;;;;4.80;0.90;;;10.30;62.00;9.80;101959.00;;;;4911731;28;94027;-66
2023/04/03 09:05:37;;;;;;;1.90;0.60;;;10.00;59.50;9.60;101951.00;;;;4911409;28;93902;-64
2023/04/03 09:08:25;;;;;;;0.83;0.30;;;9.80;59.30;9.40;101971.00;;;;4932479;28;93241;-64
2023/04/03 09:11:34;;;;;;;0.60;0.37;;;9.60;61.60;9.40;101954.00;;;;4926852;28;93382;-66
2023/04/03 09:14:18;;;;;;;1.23;0.40;;;9.60;62.80;9.40;101960.00;;;;4925906;28;93381;-64
2023/04/03 09:17:07;;;;;;;0.97;0.60;;;9.50;62.60;9.50;101956.00;;;;4941266;28;93783;-65
2023/04/03 09:19:41;;;;;;;0.90;0.40;;;9.00;62.80;9.70;101954.00;;;;4926891;28;98871;-66
2023/04/03 09:22:22;;;;;;;0.63;0.63;;;9.70;63.50;9.90;101953.00;;;;4942522;28;92325;-65
2023/04/03 09:25:13;;;;;;;1.33;0.60;;;9.90;61.50;10.00;101945.00;;;;4912860;28;93138;-64
2023/04/03 09:27:40;;;;;;;0.63;0.43;;;10.50;61.20;9.90;101959.00;;;;4911050;28;93650;-64
2023/04/03 09:30:13;;;;;;;0.87;0.77;;;10.00;60.50;9.90;101961.00;;;;4927523;28;94468;-64
2023/04/03 09:32:48;;;;;;;0.80;0.73;;;10.00;60.10;9.80;101966.00;;;;4926777;28;93018;-65
2023/04/03 09:35:18;;;;;;;3.10;0.80;;;9.90;59.70;9.80;101957.00;;;;4926576;28;94321;-67
2023/04/03 09:37:46;;;;;;;0.83;0.30;;;9.90;60.10;9.80;101969.00;;;;4926594;28;93497;-65
2023/04/03 09:40:38;;;;;;;0.93;0.40;;;9.90;59.00;9.60;101963.00;;;;4929439;28;92967;-65
2023/04/03 09:43:26;;;;;;;0.40;0.40;;;9.80;58.90;9.30;101964.00;;;;4925937;28;92994;-64
2023/04/03 09:45:53;;;;;;;0.70;0.70;;;9.60;59.10;9.00;101958.00;;;;4929245;28;93094;-66
2023/04/03 09:48:24;;;;;;;0.40;0.30;;;9.20;57.30;9.00;101946.00;;;;4927231;28;92301;-64
2023/04/03 09:50:50;;;;;;;1.07;0.47;;;9.10;58.60;9.30;101954.00;;;;4928692;28;94573;-65
2023/04/03 09:53:43;;;;;;;1.00;0.60;;;9.20;59.30;9.80;101936.00;;;;4922036;28;92845;-64
2023/04/03 09:56:21;;;;;;;0.43;0.40;;;9.40;56.30;10.20;101941.00;;;;4927097;28;117512;-64
2023/04/03 09:59:03;;;;;;;0.43;0.43;;;9.90;56.50;10.30;101945.00;;;;4928932;28;94589;-65
2023/04/03 10:01:35;;;;;;;2.73;0.53;;;10.10;56.60;10.30;101947.00;;;;4929249;28;96809;-65
2023/04/03 10:04:09;;;;;;;2.43;1.00;;;10.20;55.60;10.50;101954.00;;;;4930627;28;93022;-65
2023/04/03 10:06:46;;;;;;;1.60;0.30;;;10.20;56.50;10.50;101947.00;;;;4928670;28;93936;-65
2023/04/03 10:09:21;;;;;;;3.33;1.43;;;10.30;56.70;10.50;101948.00;;;;4926918;28;93477;-64
2023/04/03 10:12:10;;;;;;;0.90;0.40;;;10.30;56.90;10.60;101963.00;;;;4929498;28;92848;-64
2023/04/03 10:14:53;;;;;;;0.60;0.50;;;10.40;57.30;10.50;101957.00;;;;4930655;28;92214;-64
2023/04/03 10:17:42;;;;;;;1.33;0.60;;;10.40;57.00;10.30;101953.00;;;;4929255;28;93056;-64
2023/04/03 10:20:30;;;;;;;0.50;0.33;;;10.30;57.10;9.90;101952.00;;;;4910391;28;93396;-64
2023/04/03 10:23:41;;;;;;;0.33;0.33;;;10.00;56.90;9.50;101948.00;;;;4911602;28;94407;-64
2023/04/03 10:26:49;;;;;;;1.17;0.60;;;9.70;56.70;9.10;101946.00;;;;4926859;28;92819;-65
2023/04/03 10:29:48;;;;;;;1.67;0.83;;;9.30;56.90;8.90;101952.00;;;;4930564;28;92978;-65
2023/04/03 10:32:48;;;;;;;0.80;0.57;;;9.10;56.70;8.70;101951.00;;;;4937880;28;114174;-64
2023/04/03 10:35:37;;;;;;;0.63;0.40;;;8.90;56.70;8.60;101951.00;;;;4927234;28;93126;-64
2023/04/03 10:38:41;;;;;;;2.40;0.63;;;8.80;57.10;8.50;101946.00;;;;4939313;28;92947;-64
2023/04/03 10:41:24;;;;;;;3.17;0.53;;;8.80;57.40;8.50;101947.00;;;;4912010;28;111578;-66
2023/04/03 10:44:08;;;;;;;0.80;0.57;;;8.60;57.60;8.50;101935.00;;;;4909077;28;92543;-63
2023/04/03 10:46:45;;;;;;;6.03;0.53;;;8.60;57.80;8.60;101933.00;;;;4929739;28;96415;-64
2023/04/03 10:49:35;;;;;;;0.87;0.53;;;8.80;58.00;8.60;101927.00;;;;4911994;28;92881;-64
2023/04/03 10:52:34;;;;;;;4.43;0.97;;;8.60;58.00;8.60;101933.00;;;;4926342;28;94106;-64
2023/04/03 10:55:19;;;;;;;0.30;0.30;;;8.60;58.30;8.50;101933.00;;;;4927268;28;92992;-66
2023/04/03 10:57:47;;;;;;;1.03;0.43;;;8.60;58.10;8.40;101927.00;;;;4928050;28;93210;-65
2023/04/03 11:00:23;;;;;;;0.77;0.50;;;8.40;57.70;8.20;101933.00;;;;4911362;28;93381;-65
2023/04/03 11:02:55;;;;;;;0.27;0.20;;;8.40;57.60;8.10;101943.00;;;;4925467;28;115355;-65